Time;durP1;ratioP1;P1;durP2;ratioP2;P2;SDS_P1;SDS_P2;PMS_P1;PMS_P2;Temp;Humidity;BMP_temperature;BMP_pressure;BME280_temperature;BME280_humidity;BME280_pressure;Samples;Min_cycle;Max_cycle;Signal;HPM_P1;HPM_P2
2022/08/09 00:01:29;;;;;;;18.15;6.55;;;;;;;21.99;71.32;100244.30;1708304;84;21236;-78
2022/08/09 00:04:37;;;;;;;12.50;6.65;;;;;;;22.01;71.13;100237.91;1708734;84;21778;-78
2022/08/09 00:07:46;;;;;;;19.00;6.77;;;;;;;21.90;71.53;100236.91;1708920;84;21196;-78
2022/08/09 00:10:54;;;;;;;11.68;6.28;;;;;;;21.83;71.79;100238.16;1709479;84;21786;-79
2022/08/09 00:14:02;;;;;;;14.53;5.55;;;;;;;21.78;71.96;100239.46;1709223;84;21730;-80
2022/08/09 00:17:09;;;;;;;18.45;6.37;;;;;;;21.72;72.21;100242.71;1695849;84;21805;-79
2022/08/09 00:20:16;;;;;;;15.83;6.72;;;;;;;21.56;72.61;100237.42;1678469;85;21783;-79
2022/08/09 00:23:23;;;;;;;11.97;6.37;;;;;;;21.53;72.98;100237.92;1682207;85;21202;-79
2022/08/09 00:26:33;;;;;;;20.85;6.58;;;;;;;21.48;73.06;100235.59;1679107;85;21207;-79
2022/08/09 00:29:40;;;;;;;18.20;6.87;;;;;;;21.42;73.16;100234.66;1683045;85;21182;-79
2022/08/09 00:32:47;;;;;;;14.80;6.17;;;;;;;21.41;73.15;100231.03;1678292;85;21254;-79
2022/08/09 00:35:58;;;;;;;23.98;6.95;;;;;;;21.40;73.29;100229.88;1682297;85;21213;-80
2022/08/09 00:39:02;;;;;;;14.55;7.33;;;;;;;21.40;73.40;100237.67;1679837;85;21194;-80
2022/08/09 00:42:10;;;;;;;19.37;8.15;;;;;;;21.38;73.70;100245.44;1681296;85;21680;-80
2022/08/09 00:45:18;;;;;;;16.85;7.67;;;;;;;21.33;74.19;100239.78;1678895;85;21756;-79
2022/08/09 00:48:24;;;;;;;17.00;7.58;;;;;;;21.26;74.74;100234.02;1682118;85;21823;-79
2022/08/09 00:51:31;;;;;;;20.10;7.65;;;;;;;21.22;75.16;100232.83;1678717;85;21289;-80
2022/08/09 00:54:38;;;;;;;18.10;8.20;;;;;;;21.19;75.66;100234.19;1682136;85;21747;-79
2022/08/09 00:57:44;;;;;;;20.57;7.95;;;;;;;21.12;76.20;100232.92;1679373;85;21211;-79
2022/08/09 01:00:52;;;;;;;17.65;9.10;;;;;;;21.05;76.76;100229.45;1682939;85;21781;-80
2022/08/09 01:04:01;;;;;;;14.68;9.28;;;;;;;21.00;77.22;100229.91;1678661;85;21258;-79
2022/08/09 01:07:28;;;;;;;17.90;8.85;;;;;;;20.89;78.13;100224.69;1679316;85;21199;-79
2022/08/09 01:11:08;;;;;;;16.90;8.85;;;;;;;20.78;78.88;100225.55;1680740;85;22144;-79
2022/08/09 01:14:26;;;;;;;21.35;9.85;;;;;;;20.70;79.47;100229.53;1628160;85;21206;-79
2022/08/09 01:17:41;;;;;;;23.40;9.98;;;;;;;20.74;79.69;100227.13;1703300;83;21177;-79
2022/08/09 01:21:15;;;;;;;20.32;10.38;;;;;;;20.70;80.09;100228.70;1770157;81;21757;-80
2022/08/09 01:24:51;;;;;;;20.97;10.13;;;;;;;20.71;80.00;100229.02;1770107;81;21750;-80
2022/08/09 01:27:59;;;;;;;22.98;10.03;;;;;;;20.67;80.06;100226.72;1703760;84;21193;-79
2022/08/09 01:31:06;;;;;;;31.65;10.50;;;;;;;20.64;80.11;100224.42;1770488;81;21157;-79
2022/08/09 01:34:14;;;;;;;16.02;11.05;;;;;;;20.57;80.28;100232.61;1769990;81;21181;-80
2022/08/09 01:37:22;;;;;;;20.20;9.93;;;;;;;20.58;80.36;100225.41;1703171;84;21161;-80
2022/08/09 01:40:29;;;;;;;18.55;11.12;;;;;;;20.52;80.85;100229.17;1768406;81;21797;-79
2022/08/09 01:43:35;;;;;;;19.10;10.28;;;;;;;20.51;80.94;100221.90;1703073;84;21225;-79
2022/08/09 01:46:49;;;;;;;20.82;10.30;;;;;;;20.54;80.83;100228.37;1770375;81;21225;-79
2022/08/09 01:49:57;;;;;;;20.12;10.10;;;;;;;20.56;80.76;100231.77;1704388;84;21718;-79
2022/08/09 01:53:04;;;;;;;20.97;10.13;;;;;;;20.46;81.19;100231.48;1769320;81;21177;-79
2022/08/09 01:56:12;;;;;;;15.68;10.58;;;;;;;20.47;81.11;100236.52;1705484;82;21189;-79
2022/08/09 01:59:24;;;;;;;29.75;10.80;;;;;;;20.41;81.17;100236.38;1769353;81;21152;-79
2022/08/09 02:02:35;;;;;;;23.20;10.30;;;;;;;20.44;81.00;100235.05;1702171;84;21196;-80
2022/08/09 02:05:43;;;;;;;24.35;10.82;;;;;;;20.42;81.11;100241.41;1769441;81;21722;-79
2022/08/09 02:08:50;;;;;;;22.45;9.90;;;;;;;20.35;81.43;100239.29;1768641;81;21196;-79
2022/08/09 02:11:57;;;;;;;23.92;11.18;;;;;;;20.37;81.39;100244.92;1700235;84;21233;-79
2022/08/09 02:15:04;;;;;;;18.90;11.08;;;;;;;20.34;81.85;100244.00;1735018;82;21133;-79
2022/08/09 02:18:12;;;;;;;20.37;11.10;;;;;;;20.29;82.42;100241.11;1734602;82;21188;-79
2022/08/09 02:21:21;;;;;;;22.42;11.30;;;;;;;20.26;82.54;100244.91;1735153;82;21239;-79
2022/08/09 02:24:34;;;;;;;21.10;11.60;;;;;;;20.19;83.11;100242.81;1733919;82;21179;-79
2022/08/09 02:27:40;;;;;;;22.10;13.25;;;;;;;20.06;83.87;100243.33;1734705;82;21737;-79
2022/08/09 02:30:57;;;;;;;20.72;11.40;;;;;;;19.94;85.09;100239.69;1735276;82;21706;-79
2022/08/09 02:34:05;;;;;;;18.75;12.47;;;;;;;19.83;86.24;100239.14;1731905;82;21164;-79
2022/08/09 02:37:17;;;;;;;29.67;13.35;;;;;;;19.87;86.71;100243.13;1734175;82;21177;-79
2022/08/09 02:40:25;;;;;;;25.55;12.35;;;;;;;19.92;87.07;100246.03;1735197;82;21761;-79
2022/08/09 02:43:32;;;;;;;19.65;12.95;;;;;;;19.89;87.64;100247.89;1734759;82;21808;-79
2022/08/09 02:46:38;;;;;;;23.83;13.55;;;;;;;19.95;88.03;100253.89;1734469;82;21216;-80
2022/08/09 02:49:51;;;;;;;19.07;12.58;;;;;;;20.04;88.44;100252.45;1735302;82;21196;-80
2022/08/09 02:53:05;;;;;;;25.05;13.45;;;;;;;20.16;88.51;100253.84;1734793;82;21148;-80
2022/08/09 02:56:12;;;;;;;25.45;14.25;;;;;;;20.23;88.90;100259.27;1734589;82;21164;-80
2022/08/09 02:59:18;;;;;;;33.65;13.62;;;;;;;20.39;88.71;100260.78;1735188;82;21205;-80
2022/08/09 03:02:25;;;;;;;20.25;11.60;;;;;;;20.55;88.48;100266.17;1734766;82;21201;-79
2022/08/09 03:05:31;;;;;;;26.42;13.58;;;;;;;20.67;88.03;100260.61;1734966;82;21161;-80
2022/08/09 03:08:38;;;;;;;22.15;12.93;;;;;;;20.85;87.71;100267.97;1734778;82;21212;-80
2022/08/09 03:11:45;;;;;;;26.87;13.80;;;;;;;20.97;87.49;100269.31;1735085;82;21172;-79
2022/08/09 03:14:52;;;;;;;22.17;12.58;;;;;;;21.34;86.31;100269.83;1733163;82;21808;-79
2022/08/09 03:17:58;;;;;;;25.75;12.45;;;;;;;21.49;85.46;100270.11;1734460;82;21184;-79
2022/08/09 03:21:05;;;;;;;22.95;13.22;;;;;;;21.63;84.55;100264.54;1734868;82;21212;-79
2022/08/09 03:24:11;;;;;;;21.35;11.97;;;;;;;21.72;83.97;100259.96;1734059;82;21733;-79
2022/08/09 03:27:18;;;;;;;24.32;13.03;;;;;;;21.81;83.43;100264.86;1734305;82;21188;-78
2022/08/09 03:30:24;;;;;;;20.32;12.43;;;;;;;21.85;83.21;100265.22;1735115;82;21781;-79
2022/08/09 03:33:31;;;;;;;25.08;12.47;;;;;;;21.91;83.00;100261.41;1733834;82;21189;-79
2022/08/09 03:36:39;;;;;;;24.47;12.90;;;;;;;21.90;83.16;100269.48;1734406;82;21149;-80
2022/08/09 03:39:47;;;;;;;19.87;12.18;;;;;;;22.01;82.93;100268.54;1734514;82;21229;-80
2022/08/09 03:42:54;;;;;;;23.55;12.37;;;;;;;22.23;82.08;100270.61;1735276;82;21187;-80
2022/08/09 03:46:00;;;;;;;23.60;13.18;;;;;;;22.39;81.30;100273.37;1735388;82;21137;-80
2022/08/09 03:49:08;;;;;;;21.10;11.55;;;;;;;22.63;80.44;100272.64;1734652;82;21156;-80
2022/08/09 03:52:15;;;;;;;22.52;11.60;;;;;;;22.79;79.21;100277.87;1734754;82;21216;-79
2022/08/09 03:55:23;;;;;;;19.45;11.22;;;;;;;22.91;78.37;100270.80;1734076;82;21176;-79
2022/08/09 03:58:31;;;;;;;18.23;10.75;;;;;;;22.97;77.66;100268.38;1734386;82;21190;-79
2022/08/09 04:01:37;;;;;;;20.27;12.07;;;;;;;23.10;76.96;100275.50;1735379;82;21200;-79
2022/08/09 04:04:44;;;;;;;16.80;11.18;;;;;;;23.26;76.08;100269.02;1734518;82;21220;-79
2022/08/09 04:07:50;;;;;;;16.17;10.10;;;;;;;23.33;76.08;100271.59;1734430;82;21176;-79
2022/08/09 04:10:55;;;;;;;27.42;10.70;;;;;;;23.45;75.15;100275.09;1734014;82;21156;-79
2022/08/09 04:14:02;;;;;;;20.52;10.85;;;;;;;23.53;75.24;100279.38;1733893;82;22562;-79
2022/08/09 04:17:10;;;;;;;21.40;11.10;;;;;;;23.64;74.58;100265.28;1734471;82;21172;-79
2022/08/09 04:20:17;;;;;;;22.37;12.23;;;;;;;23.73;74.24;100264.25;1735290;82;21176;-80
2022/08/09 04:23:23;;;;;;;22.62;10.85;;;;;;;23.80;73.51;100269.61;1734167;82;21203;-79
2022/08/09 04:26:30;;;;;;;27.82;12.65;;;;;;;23.98;72.90;100279.00;1735302;82;21192;-80
2022/08/09 04:29:36;;;;;;;19.55;10.30;;;;;;;23.98;72.98;100280.40;1735412;82;21208;-80
2022/08/09 04:32:43;;;;;;;20.97;12.33;;;;;;;24.03;72.53;100278.20;1734040;82;21193;-80
2022/08/09 04:35:50;;;;;;;21.17;11.20;;;;;;;24.22;72.15;100279.48;1733787;82;21161;-80
2022/08/09 04:38:49;;;;;;;23.80;11.15;;;;;;;24.41;71.71;100270.98;1733777;82;21171;-80
2022/08/09 04:41:41;;;;;;;22.00;11.57;;;;;;;24.59;70.94;100273.91;1735396;82;21164;-79
2022/08/09 04:44:29;;;;;;;16.62;10.53;;;;;;;24.72;69.69;100272.60;1735107;82;21185;-80
2022/08/09 04:47:21;;;;;;;20.82;9.63;;;;;;;24.82;69.04;100270.41;1735029;82;21820;-79
2022/08/09 04:50:09;;;;;;;25.08;10.38;;;;;;;24.96;68.28;100277.20;1735387;82;21224;-80
2022/08/09 04:53:09;;;;;;;19.40;10.38;;;;;;;25.03;67.71;100273.61;1734652;82;21186;-80
2022/08/09 04:55:57;;;;;;;24.50;10.68;;;;;;;25.11;67.38;100271.70;1734241;82;21193;-80
2022/08/09 04:58:51;;;;;;;22.58;10.08;;;;;;;25.33;66.73;100276.27;1734130;82;21757;-80
2022/08/09 05:01:38;;;;;;;21.33;11.38;;;;;;;25.37;66.89;100269.01;1735373;82;21181;-80
2022/08/09 05:04:32;;;;;;;14.40;10.10;;;;;;;25.56;66.29;100272.98;1757753;81;21189;-79
2022/08/09 05:07:18;;;;;;;18.50;9.18;;;;;;;25.70;65.91;100268.52;1703825;84;21241;-80
2022/08/09 05:10:14;;;;;;;15.75;8.25;;;;;;;25.88;64.65;100269.15;1769039;81;21185;-80
2022/08/09 05:13:00;;;;;;;22.87;8.85;;;;;;;25.99;63.08;100272.23;1701985;84;21213;-79
2022/08/09 05:16:07;;;;;;;16.12;7.58;;;;;;;26.12;61.23;100270.27;1767855;81;21456;-80
2022/08/09 05:19:13;;;;;;;17.65;7.30;;;;;;;26.33;59.14;100271.09;1701972;84;21797;-79
2022/08/09 05:22:21;;;;;;;13.15;7.28;;;;;;;26.37;56.94;100271.37;1761310;81;21767;-80
2022/08/09 05:25:28;;;;;;;13.95;6.70;;;;;;;26.52;56.10;100264.37;1733994;81;21200;-80
2022/08/09 05:28:34;;;;;;;18.57;6.83;;;;;;;26.64;54.38;100268.29;1731542;81;21128;-79
2022/08/09 05:31:40;;;;;;;12.13;6.92;;;;;;;26.74;54.27;100269.09;1753378;81;21159;-79
2022/08/09 05:34:48;;;;;;;15.90;7.47;;;;;;;26.88;52.78;100278.32;1751851;81;21141;-79
2022/08/09 05:38:02;;;;;;;21.12;6.45;;;;;;;26.99;52.60;100277.16;1756772;81;21157;-79
2022/08/09 05:41:15;;;;;;;16.75;7.75;;;;;;;27.11;51.02;100267.89;1751040;81;21648;-80
2022/08/09 05:44:21;;;;;;;11.80;7.22;;;;;;;27.22;50.87;100265.30;1752658;81;21762;-79
2022/08/09 05:47:29;;;;;;;17.30;7.67;;;;;;;27.29;50.17;100266.41;1751090;81;21197;-79
2022/08/09 05:50:40;;;;;;;12.82;6.60;;;;;;;27.33;50.79;100263.27;1753352;81;21145;-80
2022/08/09 05:53:48;;;;;;;11.45;6.08;;;;;;;27.49;50.26;100264.05;1751261;81;21751;-80
2022/08/09 05:56:54;;;;;;;18.87;6.72;;;;;;;27.57;47.37;100262.04;1755778;81;21240;-79
2022/08/09 06:00:02;;;;;;;11.20;6.37;;;;;;;27.68;48.21;100263.64;1756804;81;21174;-80
2022/08/09 06:03:09;;;;;;;10.90;6.62;;;;;;;27.82;47.72;100261.63;1740342;82;21220;-79
2022/08/09 06:06:16;;;;;;;16.77;7.10;;;;;;;27.97;48.15;100261.50;1740640;82;21201;-80
2022/08/09 06:09:21;;;;;;;12.63;6.62;;;;;;;27.96;48.52;100261.23;1740831;82;21170;-80
2022/08/09 06:12:29;;;;;;;24.35;7.20;;;;;;;28.06;48.35;100255.52;1740026;82;21220;-80
2022/08/09 06:15:35;;;;;;;15.83;6.72;;;;;;;28.12;48.73;100253.50;1740546;82;21174;-80
2022/08/09 06:18:41;;;;;;;20.23;7.17;;;;;;;28.32;47.73;100249.66;1740613;81;21165;-80
2022/08/09 06:21:47;;;;;;;16.02;7.15;;;;;;;28.44;46.71;100253.80;1728092;82;21233;-79
2022/08/09 06:24:55;;;;;;;10.82;5.78;;;;;;;28.62;46.56;100253.62;1661458;85;21174;-80
2022/08/09 06:28:04;;;;;;;10.32;6.35;;;;;;;28.74;44.58;100255.44;1664961;86;21233;-79
2022/08/09 06:31:10;;;;;;;18.42;6.85;;;;;;;28.81;44.21;100255.09;1665732;86;21190;-79
2022/08/09 06:34:18;;;;;;;19.30;6.87;;;;;;;28.84;45.80;100246.03;1666516;85;21164;-79
2022/08/09 06:37:25;;;;;;;9.23;6.60;;;;;;;28.98;46.14;100243.37;1667266;85;21204;-80
2022/08/09 06:40:33;;;;;;;12.23;6.47;;;;;;;29.14;44.99;100242.05;1687718;85;21181;-80
2022/08/09 06:43:39;;;;;;;19.23;6.58;;;;;;;29.14;45.20;100244.03;1692264;84;21213;-80
2022/08/09 06:46:47;;;;;;;16.32;6.83;;;;;;;29.19;45.28;100243.96;1664413;85;21175;-79
2022/08/09 06:49:54;;;;;;;21.68;7.20;;;;;;;29.27;46.23;100245.54;1668332;85;21222;-79
2022/08/09 06:53:01;;;;;;;15.40;7.67;;;;;;;29.53;44.17;100243.76;1693858;84;21213;-80
2022/08/09 06:56:08;;;;;;;14.70;8.03;;;;;;;29.70;45.92;100240.45;1663694;85;21189;-81
2022/08/09 06:59:14;;;;;;;13.28;7.58;;;;;;;29.84;45.66;100246.99;1685284;84;21186;-81
2022/08/09 07:02:21;;;;;;;16.23;8.23;;;;;;;29.89;46.33;100248.89;1665218;85;21737;-81
2022/08/09 07:05:30;;;;;;;18.98;8.70;;;;;;;29.95;44.99;100256.12;1667703;85;21750;-81
2022/08/09 07:08:39;;;;;;;10.63;7.17;;;;;;;30.04;45.66;100254.27;1702441;84;21228;-78
2022/08/09 07:11:47;;;;;;;15.63;8.10;;;;;;;30.04;45.80;100262.16;1675334;85;21189;-79
2022/08/09 07:14:53;;;;;;;16.48;8.18;;;;;;;30.13;43.73;100252.46;1721932;83;21126;-78
2022/08/09 07:18:00;;;;;;;20.92;7.60;;;;;;;30.19;44.46;100258.27;1667731;86;21753;-79
2022/08/09 07:21:07;;;;;;;14.68;8.15;;;;;;;30.33;44.38;100256.06;1677707;84;21752;-79
2022/08/09 07:24:13;;;;;;;14.43;7.53;;;;;;;30.36;42.31;100252.64;1687228;83;21253;-79
2022/08/09 07:27:21;;;;;;;22.60;7.80;;;;;;;30.36;42.31;100252.64;1734131;81;21166;-80
2022/08/09 07:30:28;;;;;;;15.00;7.97;;;;;;;30.46;41.97;100251.88;1737760;82;21161;-79
2022/08/09 07:33:36;;;;;;;14.80;7.83;;;;;;;30.47;43.25;100254.12;1714162;83;21232;-79
2022/08/09 07:36:44;;;;;;;14.33;7.53;;;;;;;30.55;41.70;100254.81;1703756;83;21176;-80
2022/08/09 07:39:51;;;;;;;12.28;7.15;;;;;;;30.60;42.55;100246.25;1722473;83;21166;-79
2022/08/09 07:43:06;;;;;;;16.32;8.40;;;;;;;30.70;43.63;100255.09;1720397;83;21182;-80
2022/08/09 07:46:13;;;;;;;16.57;7.92;;;;;;;30.70;43.63;100255.09;1712383;83;21145;-79
2022/08/09 07:49:21;;;;;;;18.37;8.63;;;;;;;30.86;45.05;100252.25;1727022;83;21201;-80
2022/08/09 07:52:28;;;;;;;14.83;7.62;;;;;;;30.98;44.20;100261.63;1709771;83;21627;-80
2022/08/09 07:55:33;;;;;;;16.82;9.10;;;;;;;31.05;43.35;100257.25;1705772;84;21731;-80
2022/08/09 07:58:40;;;;;;;21.97;9.90;;;;;;;31.17;43.86;100260.11;1703636;84;21797;-79
2022/08/09 08:01:47;;;;;;;20.45;9.03;;;;;;;31.26;43.36;100259.05;1714038;83;21165;-79
2022/08/09 08:04:53;;;;;;;15.55;8.63;;;;;;;31.29;42.38;100259.88;1727896;83;21169;-80
2022/08/09 08:07:58;;;;;;;19.55;9.08;;;;;;;31.37;40.74;100248.38;1726881;83;21204;-80
2022/08/09 08:11:06;;;;;;;16.07;8.98;;;;;;;31.42;40.61;100258.16;1712745;83;21765;-80
2022/08/09 08:14:12;;;;;;;24.10;9.55;;;;;;;31.39;41.27;100250.91;1704310;84;21213;-80
2022/08/09 08:17:14;;;;;;;21.57;9.63;;;;;;;31.62;40.51;100248.40;1705499;84;21757;-80
2022/08/09 08:20:21;;;;;;;16.07;8.35;;;;;;;31.92;40.34;100255.91;1709530;83;21205;-80
2022/08/09 08:23:29;;;;;;;19.02;8.68;;;;;;;32.04;38.96;100249.09;1704650;84;21213;-80
2022/08/09 08:26:36;;;;;;;15.75;8.93;;;;;;;32.08;38.44;100239.38;1705959;83;21814;-79
2022/08/09 08:29:44;;;;;;;16.48;7.47;;;;;;;31.87;37.91;100249.80;1704867;84;21766;-80
2022/08/09 08:32:51;;;;;;;15.65;7.03;;;;;;;31.79;35.62;100244.87;1706953;83;21220;-80
2022/08/09 08:35:57;;;;;;;13.72;6.25;;;;;;;31.80;36.04;100241.71;1716129;83;21156;-80
2022/08/09 08:39:03;;;;;;;13.85;5.53;;;;;;;31.89;33.81;100240.98;1726634;83;21169;-80
2022/08/09 08:42:08;;;;;;;11.05;6.10;;;;;;;31.95;33.43;100235.48;1716032;83;21817;-80
2022/08/09 08:45:14;;;;;;;10.38;4.83;;;;;;;31.96;33.78;100249.88;1705319;84;21169;-79
2022/08/09 08:48:21;;;;;;;13.22;4.78;;;;;;;31.98;32.93;100236.23;1704024;84;21244;-79
2022/08/09 08:51:29;;;;;;;8.13;4.50;;;;;;;32.14;33.44;100248.85;1709714;83;21212;-80
2022/08/09 08:54:36;;;;;;;16.60;4.80;;;;;;;32.19;32.22;100237.41;1705768;84;21233;-80
2022/08/09 08:57:42;;;;;;;9.43;4.70;;;;;;;32.24;32.35;100240.67;1712832;83;21196;-80
2022/08/09 09:00:50;;;;;;;12.20;4.42;;;;;;;32.24;32.75;100240.09;1708431;83;21675;-80
2022/08/09 09:03:55;;;;;;;11.38;4.28;;;;;;;32.29;32.73;100231.47;1683271;84;21197;-80
2022/08/09 09:07:04;;;;;;;13.68;4.50;;;;;;;32.34;32.55;100225.42;1712286;83;21229;-80
2022/08/09 09:10:12;;;;;;;9.48;3.77;;;;;;;32.35;33.04;100226.50;1715440;83;21730;-80
2022/08/09 09:13:21;;;;;;;13.53;3.80;;;;;;;32.40;32.36;100228.39;1700668;83;21760;-80
2022/08/09 09:16:32;;;;;;;10.88;4.53;;;;;;;32.45;32.14;100221.17;1696443;83;21160;-80
2022/08/09 09:19:39;;;;;;;12.43;4.10;;;;;;;32.55;31.74;100223.72;1711938;83;21261;-80
2022/08/09 09:23:01;;;;;;;7.72;3.60;;;;;;;32.59;31.77;100223.33;1725280;82;21200;-80
2022/08/09 09:26:08;;;;;;;8.23;3.20;;;;;;;32.60;30.91;100216.50;1696228;83;21856;-80
2022/08/09 09:29:15;;;;;;;9.48;3.87;;;;;;;32.60;30.20;100229.23;1701833;84;21209;-80
2022/08/09 09:32:16;;;;;;;6.50;3.37;;;;;;;32.58;29.19;100213.76;1676753;85;21216;-80
2022/08/09 09:35:24;;;;;;;10.30;3.52;;;;;;;32.63;29.53;100217.27;1682834;84;21166;-81
2022/08/09 09:38:30;;;;;;;6.83;3.15;;;;;;;32.66;28.82;100219.46;1686587;84;21216;-81
2022/08/09 09:41:37;;;;;;;6.70;3.55;;;;;;;32.66;30.27;100218.05;1676336;85;21193;-81
2022/08/09 09:44:46;;;;;;;6.55;3.25;;;;;;;32.70;26.88;100220.48;1675718;85;21703;-80
2022/08/09 09:47:53;;;;;;;6.85;2.95;;;;;;;32.72;27.67;100215.91;1682236;84;21213;-81
2022/08/09 09:51:01;;;;;;;6.60;3.58;;;;;;;32.79;26.71;100222.77;1675673;85;21558;-81
2022/08/09 09:54:22;;;;;;;11.10;4.90;;;;;;;32.78;28.25;100215.41;1676902;84;21169;-80
2022/08/09 09:57:28;;;;;;;6.30;3.67;;;;;;;32.80;29.55;100212.28;1669386;85;21253;-80
2022/08/09 10:00:35;;;;;;;11.45;4.25;;;;;;;32.76;29.48;100214.92;1700778;84;21308;-80
2022/08/09 10:03:50;;;;;;;12.37;4.60;;;;;;;32.77;29.73;100217.17;1671980;85;21268;-80
2022/08/09 10:06:58;;;;;;;9.33;3.83;;;;;;;32.78;28.18;100218.24;1675301;85;21224;-81
2022/08/09 10:10:06;;;;;;;12.18;3.85;;;;;;;32.82;26.15;100218.44;1674689;85;21213;-81
2022/08/09 10:13:13;;;;;;;8.20;4.50;;;;;;;32.83;27.41;100208.19;1674535;85;21264;-80
2022/08/09 10:16:20;;;;;;;9.83;3.90;;;;;;;32.88;27.18;100227.03;1675648;85;21189;-80
2022/08/09 10:19:28;;;;;;;10.68;4.12;;;;;;;32.90;26.30;100216.25;1676861;85;21181;-81
2022/08/09 10:22:37;;;;;;;14.18;4.28;;;;;;;32.95;26.13;100206.77;1655597;85;21658;-81
2022/08/09 10:25:44;;;;;;;7.33;3.65;;;;;;;32.96;26.33;100214.09;1677357;85;21759;-80
2022/08/09 10:28:52;;;;;;;13.65;3.22;;;;;;;33.00;26.64;100211.70;1712587;82;21192;-80
2022/08/09 10:31:59;;;;;;;7.00;2.42;;;;;;;33.10;25.97;100223.30;1781049;80;21157;-79
2022/08/09 10:34:59;;;;;;;6.67;2.50;;;;;;;33.13;23.98;100216.16;1780832;80;21761;-79
2022/08/09 10:38:07;;;;;;;5.90;2.67;;;;;;;33.13;24.74;100211.33;1751719;80;21193;-80
2022/08/09 10:41:13;;;;;;;6.55;2.75;;;;;;;33.15;25.31;100211.81;1743248;82;21168;-80
2022/08/09 10:44:18;;;;;;;6.75;2.10;;;;;;;33.17;25.75;100213.75;1771533;80;21745;-80
2022/08/09 10:47:33;;;;;;;5.55;2.05;;;;;;;33.17;25.18;100208.09;1762960;80;21173;-80
2022/08/09 10:51:05;;;;;;;5.92;2.42;;;;;;;33.13;24.51;100208.49;1726395;82;21200;-80
2022/08/09 10:54:13;;;;;;;7.08;2.35;;;;;;;33.15;26.59;100201.89;1750871;82;21632;-80
2022/08/09 10:57:22;;;;;;;5.28;2.55;;;;;;;33.18;27.26;100195.58;1750708;81;21260;-80
2022/08/09 11:00:48;;;;;;;3.77;2.22;;;;;;;33.17;25.33;100204.39;1750981;82;21249;-80
2022/08/09 11:04:20;;;;;;;8.38;2.85;;;;;;;33.41;27.22;100202.54;1749479;81;21233;-80
2022/08/09 11:07:32;;;;;;;7.62;2.40;;;;;;;33.18;27.52;100201.25;1750649;81;21735;-80
2022/08/09 11:10:56;;;;;;;7.25;2.58;;;;;;;33.10;26.74;100194.14;1750102;82;21250;-80
2022/08/09 11:14:40;;;;;;;5.05;2.60;;;;;;;33.08;26.73;100193.06;1750964;82;21179;-79
2022/08/09 11:17:50;;;;;;;10.35;2.47;;;;;;;33.05;26.91;100190.88;1736680;82;21305;-79
2022/08/09 11:20:57;;;;;;;8.10;2.60;;;;;;;33.05;27.12;100189.46;1748991;82;22040;-79
2022/08/09 11:24:09;;;;;;;4.87;2.45;;;;;;;33.02;27.33;100187.28;1750306;82;21774;-79
2022/08/09 11:27:37;;;;;;;9.03;2.37;;;;;;;33.07;26.33;100181.45;1749765;81;21226;-79
2022/08/09 11:30:44;;;;;;;18.42;2.55;;;;;;;33.13;27.28;100183.58;1745728;82;21196;-79
2022/08/09 11:33:56;;;;;;;9.00;2.40;;;;;;;33.15;26.84;100175.56;1710729;84;21213;-79
2022/08/09 11:37:02;;;;;;;5.80;2.72;;;;;;;33.17;26.85;100168.42;1685937;84;21804;-79
2022/08/09 11:40:13;;;;;;;6.15;2.30;;;;;;;33.18;27.71;100171.49;1709757;84;21180;-79
2022/08/09 11:43:33;;;;;;;8.90;2.58;;;;;;;33.20;27.75;100166.31;1684850;84;21226;-80
2022/08/09 11:47:00;;;;;;;5.62;2.37;;;;;;;33.25;27.01;100161.91;1693100;83;21756;-80
2022/08/09 11:50:08;;;;;;;6.28;2.65;;;;;;;33.29;26.77;100162.91;1693621;85;21202;-80
2022/08/09 11:53:20;;;;;;;6.80;2.55;;;;;;;33.31;25.54;100167.69;1691560;83;21246;-80
2022/08/09 11:56:32;;;;;;;3.50;2.00;;;;;;;33.30;25.30;100158.07;1691772;85;21197;-80
2022/08/09 11:59:38;;;;;;;7.92;2.40;;;;;;;33.30;25.22;100156.66;1710314;84;21738;-80
2022/08/09 12:02:46;;;;;;;2.92;2.08;;;;;;;33.29;25.91;100152.16;1684259;84;21206;-80
2022/08/09 12:05:53;;;;;;;5.05;2.30;;;;;;;33.28;26.07;100145.66;1710409;84;21240;-80
2022/08/09 12:09:01;;;;;;;8.75;2.20;;;;;;;33.32;25.36;100155.76;1738119;82;21244;-80
2022/08/09 12:12:14;;;;;;;;;;;;;;;33.33;25.16;100144.66;1716069;83;21205;-80
2022/08/09 12:15:32;;;;;;;4.08;2.40;;;;;;;33.31;25.35;100145.01;1721722;83;20201;-80
2022/08/09 12:18:39;;;;;;;3.95;2.30;;;;;;;33.35;25.89;100144.32;1720532;83;21228;-79
2022/08/09 12:21:54;;;;;;;6.80;2.12;;;;;;;33.38;25.91;100153.00;1722015;83;21186;-80
2022/08/09 12:25:01;;;;;;;6.60;1.85;;;;;;;33.40;25.41;100142.73;1722588;83;21181;-80
2022/08/09 12:28:19;;;;;;;8.40;1.85;;;;;;;33.38;24.72;100138.00;1706118;83;21216;-80
2022/08/09 12:31:32;;;;;;;10.10;2.03;;;;;;;33.35;24.44;100144.32;1697884;84;21307;-79
2022/08/09 12:34:47;;;;;;;5.47;1.82;;;;;;;33.33;24.81;100137.58;1698436;84;21190;-80
2022/08/09 12:37:54;;;;;;;4.55;1.90;;;;;;;33.37;26.17;100134.34;1698060;84;21241;-80
2022/08/09 12:41:01;;;;;;;7.15;1.92;;;;;;;33.46;24.58;100131.53;1698041;84;21210;-80
2022/08/09 12:44:07;;;;;;;4.53;2.30;;;;;;;33.39;24.02;100129.15;1697971;84;21166;-80
2022/08/09 12:47:14;;;;;;;7.45;1.80;;;;;;;33.27;23.09;100134.08;1697836;84;21790;-80
2022/08/09 12:50:22;;;;;;;8.20;2.15;;;;;;;33.16;24.06;100124.22;1705276;84;21237;-80
2022/08/09 12:53:45;;;;;;;5.35;1.87;;;;;;;33.13;25.19;100122.66;1707886;84;21212;-80
2022/08/09 12:56:55;;;;;;;5.37;1.62;;;;;;;33.17;24.91;100127.33;1709005;84;21181;-80
2022/08/09 13:00:00;;;;;;;11.00;1.60;;;;;;;33.19;23.36;100126.98;1709367;84;21185;-79
2022/08/09 13:03:08;;;;;;;9.93;1.62;;;;;;;33.26;23.03;100130.97;1708670;84;21229;-80
2022/08/09 13:06:15;;;;;;;4.80;1.75;;;;;;;33.26;22.32;100126.72;1708355;84;21168;-80
2022/08/09 13:09:34;;;;;;;5.60;2.05;;;;;;;33.24;23.53;100126.23;1709243;84;21762;-80
2022/08/09 13:12:54;;;;;;;7.00;2.12;;;;;;;33.26;24.16;100123.06;1708777;84;21197;-80
2022/08/09 13:16:04;;;;;;;8.10;2.00;;;;;;;33.21;24.57;100124.05;1709533;84;21165;-80
2022/08/09 13:19:11;;;;;;;3.15;1.55;;;;;;;33.24;24.41;100107.81;1709751;84;21762;-80
2022/08/09 13:22:27;;;;;;;2.25;1.40;;;;;;;33.25;22.96;100122.23;1709244;84;21212;-80
2022/08/09 13:25:34;;;;;;;1.95;1.45;;;;;;;33.25;21.86;100126.48;1708931;84;21169;-80
2022/08/09 13:28:41;;;;;;;5.97;1.50;;;;;;;33.24;22.56;100119.15;1707758;84;21213;-80
2022/08/09 13:32:10;;;;;;;6.50;2.10;;;;;;;33.26;23.56;100115.39;1739078;82;21777;-80
2022/08/09 13:35:17;;;;;;;6.43;1.70;;;;;;;33.24;24.25;100114.90;1739375;82;21170;-80
2022/08/09 13:38:25;;;;;;;6.33;1.30;;;;;;;33.20;24.33;100108.81;1709731;84;21205;-80
2022/08/09 13:41:32;;;;;;;3.27;1.45;;;;;;;33.18;23.06;100117.66;1708668;84;21158;-80
2022/08/09 13:44:40;;;;;;;10.95;1.75;;;;;;;33.18;22.29;100119.07;1708691;84;21178;-80
2022/08/09 13:47:47;;;;;;;3.65;1.50;;;;;;;33.19;22.21;100108.57;1712488;84;21193;-80
2022/08/09 13:50:54;;;;;;;7.20;2.00;;;;;;;33.16;22.21;100110.05;1737744;82;21750;-80
2022/08/09 13:54:00;;;;;;;3.20;1.60;;;;;;;33.20;21.88;100110.23;1708363;84;21220;-79
2022/08/09 13:57:08;;;;;;;6.90;1.50;;;;;;;33.19;21.92;100110.81;1738971;82;21785;-80
2022/08/09 14:00:26;;;;;;;4.55;1.45;;;;;;;33.19;23.32;100109.98;1738137;82;21170;-79
2022/08/09 14:03:32;;;;;;;2.20;1.70;;;;;;;33.16;22.67;100104.38;1707780;84;21789;-80
2022/08/09 14:06:39;;;;;;;12.03;2.08;;;;;;;33.13;24.14;100099.41;1698949;83;21146;-80
2022/08/09 14:09:45;;;;;;;3.72;1.70;;;;;;;32.58;25.09;100103.34;1705968;83;21132;-80
2022/08/09 14:12:53;;;;;;;6.30;2.20;;;;;;;32.45;25.54;100095.22;1694297;83;21258;-80
2022/08/09 14:16:01;;;;;;;6.42;2.40;;;;;;;32.49;25.77;100103.31;1693568;85;21190;-80
2022/08/09 14:19:08;;;;;;;5.40;2.42;;;;;;;32.61;23.69;100099.84;1692905;85;21283;-80
2022/08/09 14:22:15;;;;;;;7.40;2.17;;;;;;;32.54;24.20;100104.58;1674517;85;21208;-81
2022/08/09 14:25:21;;;;;;;12.40;2.20;;;;;;;32.57;24.54;100096.85;1692369;85;21198;-84